Easter Island, Chile
Current Conditions -  °F | °C
As of 12:00 AM on Wednesday 22 Oct 2014 (Local Time) from SCIP Reporting Station
Broken Clouds Broken Clouds  
Wind Chill: 59°   Ceiling: 2000
Heat Index: 59°   Visibility: 6mi
Dew Point: 48°   Wind: 9mph
Humidity: 67%   Direction: 110°ESE
Pressure: 30.33"   Gusts: NA
Location:  27.12°S, 109.37°W
Report Text: SCIP 220600Z 11008KT 070V160 9999 BKN020 15/09 Q1027 NOSIG
Loading
Personal Weather Stations






























Interactive Weather Map New forecast layout! Learn more

10-Day Weather Forecast

Advertisements
Track Severe Weather on mobile